Time;durP1;ratioP1;P1;durP2;ratioP2;P2;SDS_P1;SDS_P2;PMS_P1;PMS_P2;Temp;Humidity;BMP_temperature;BMP_pressure;BME280_temperature;BME280_humidity;BME280_pressure;Samples;Min_cycle;Max_cycle;Signal;HPM_P1;HPM_P2
2023/12/24 00:01:12;;;;;;;9.50;2.03;;;11.80;99.90;;;;;;7281153;19;20862;-75
2023/12/24 00:03:38;;;;;;;7.43;1.70;;;11.90;99.90;;;;;;7279329;19;20193;-75
2023/12/24 00:06:05;;;;;;;7.23;1.77;;;11.90;99.90;;;;;;7299673;19;20189;-75
2023/12/24 00:08:31;;;;;;;7.57;1.57;;;11.90;99.90;;;;;;7300645;19;20265;-75
2023/12/24 00:10:57;;;;;;;4.83;1.10;;;12.00;99.90;;;;;;7278832;19;20188;-75
2023/12/24 00:13:25;;;;;;;6.90;1.20;;;12.00;99.90;;;;;;7281013;19;20189;-75
2023/12/24 00:15:51;;;;;;;5.00;1.07;;;12.00;99.90;;;;;;7281151;19;20195;-75
2023/12/24 00:18:17;;;;;;;5.03;1.07;;;12.00;99.90;;;;;;7281061;19;20203;-75
2023/12/24 00:20:43;;;;;;;4.03;1.00;;;12.00;99.90;;;;;;7280601;19;20196;-75
2023/12/24 00:23:10;;;;;;;7.23;1.23;;;12.00;99.90;;;;;;7277584;19;20185;-76
2023/12/24 00:25:37;;;;;;;5.43;2.00;;;11.80;99.90;;;;;;7283549;19;20193;-75
2023/12/24 00:28:04;;;;;;;10.17;2.00;;;11.70;99.90;;;;;;7303254;19;20265;-75
2023/12/24 00:30:30;;;;;;;9.03;1.73;;;11.70;99.90;;;;;;7280588;19;20196;-76
2023/12/24 00:32:57;;;;;;;6.53;1.33;;;11.70;99.90;;;;;;7277775;19;20242;-76
2023/12/24 00:35:24;;;;;;;3.00;1.67;;;11.80;99.90;;;;;;7279659;19;20185;-76
2023/12/24 00:37:50;;;;;;;4.60;1.30;;;11.70;99.90;;;;;;7279254;19;20199;-75
2023/12/24 00:40:17;;;;;;;4.90;1.37;;;11.70;99.90;;;;;;7278968;19;20260;-76
2023/12/24 00:42:43;;;;;;;6.20;1.30;;;11.80;99.90;;;;;;7278070;19;20734;-75
2023/12/24 00:45:10;;;;;;;5.73;1.10;;;11.90;99.90;;;;;;7277631;19;20215;-76
2023/12/24 00:47:37;;;;;;;3.57;1.27;;;11.90;99.90;;;;;;7280803;19;20252;-75
2023/12/24 00:50:08;;;;;;;4.57;1.00;;;11.90;99.90;;;;;;7300728;19;20192;-75
2023/12/24 00:52:35;;;;;;;6.47;1.40;;;11.90;99.90;;;;;;7280442;19;20185;-74
2023/12/24 00:55:01;;;;;;;3.37;1.00;;;11.90;99.90;;;;;;7281466;19;20185;-75
2023/12/24 00:57:26;;;;;;;6.40;1.40;;;11.90;99.90;;;;;;7274771;19;20214;-75
2023/12/24 00:59:52;;;;;;;4.80;1.00;;;11.90;99.90;;;;;;7278288;19;20651;-75
2023/12/24 01:02:18;;;;;;;4.37;1.10;;;11.90;99.90;;;;;;7278491;19;20215;-75
2023/12/24 01:04:44;;;;;;;5.17;1.17;;;11.80;99.90;;;;;;7278466;19;20192;-75
2023/12/24 01:07:12;;;;;;;4.83;1.80;;;11.80;99.90;;;;;;7279259;19;20192;-75
2023/12/24 01:09:38;;;;;;;2.20;1.20;;;11.70;99.90;;;;;;7279725;19;20209;-77
2023/12/24 01:12:05;;;;;;;8.33;2.60;;;11.70;99.90;;;;;;7298026;19;20648;-75
2023/12/24 01:14:31;;;;;;;4.37;1.20;;;11.80;99.90;;;;;;7302450;19;20181;-75
2023/12/24 01:16:57;;;;;;;3.00;0.63;;;11.80;99.90;;;;;;7278606;19;21031;-75
2023/12/24 01:19:24;;;;;;;3.87;0.83;;;11.80;99.90;;;;;;7277616;19;20222;-74
2023/12/24 01:21:50;;;;;;;4.67;1.00;;;11.80;99.90;;;;;;7277468;19;20660;-75
2023/12/24 01:24:16;;;;;;;3.87;0.80;;;11.80;99.90;;;;;;7279226;19;20656;-75
2023/12/24 01:26:42;;;;;;;3.43;0.83;;;11.80;99.90;;;;;;7280094;19;20196;-75
2023/12/24 01:29:07;;;;;;;5.90;0.93;;;11.90;99.90;;;;;;7279298;19;20370;-75
2023/12/24 01:31:33;;;;;;;3.63;1.10;;;11.90;99.90;;;;;;7296433;19;20192;-74
2023/12/24 01:33:59;;;;;;;4.67;0.80;;;11.90;99.90;;;;;;7277762;19;20211;-76
2023/12/24 01:36:25;;;;;;;3.33;0.80;;;12.00;99.90;;;;;;7279408;19;20197;-75
2023/12/24 01:38:51;;;;;;;4.13;0.90;;;11.80;99.90;;;;;;7276792;19;20258;-76
2023/12/24 01:41:17;;;;;;;3.13;0.80;;;11.70;99.90;;;;;;7276655;19;20256;-75
2023/12/24 01:43:43;;;;;;;4.73;1.00;;;11.70;99.90;;;;;;7276124;19;20181;-76
2023/12/24 01:46:11;;;;;;;2.47;0.83;;;11.70;99.90;;;;;;7278652;19;20189;-76
2023/12/24 01:48:38;;;;;;;4.43;1.20;;;11.70;99.90;;;;;;7277649;19;20213;-75
2023/12/24 01:51:04;;;;;;;4.00;1.10;;;11.50;99.90;;;;;;7296923;19;21038;-76
2023/12/24 01:53:31;;;;;;;3.50;1.40;;;11.50;99.90;;;;;;7288345;19;20673;-75
2023/12/24 01:56:04;;;;;;;3.70;1.23;;;11.50;99.90;;;;;;7278558;19;20603;-76
2023/12/24 01:58:30;;;;;;;4.93;1.50;;;11.50;99.90;;;;;;7277549;19;20192;-75
2023/12/24 02:00:56;;;;;;;4.57;1.30;;;11.40;99.90;;;;;;7277630;19;20207;-75
2023/12/24 02:03:23;;;;;;;3.37;1.30;;;11.30;99.90;;;;;;7276825;19;20188;-76
2023/12/24 02:05:50;;;;;;;4.03;1.20;;;11.30;99.90;;;;;;7278511;19;20552;-75
2023/12/24 02:08:21;;;;;;;3.95;1.50;;;11.30;99.90;;;;;;7276939;19;20830;-75
2023/12/24 02:10:50;;;;;;;3.93;1.47;;;11.30;99.90;;;;;;7274884;19;20220;-76
2023/12/24 02:13:17;;;;;;;4.30;1.50;;;11.40;99.90;;;;;;7278955;19;20213;-75
2023/12/24 02:15:45;;;;;;;7.23;1.40;;;11.40;99.90;;;;;;7277094;19;20710;-75
2023/12/24 02:18:11;;;;;;;4.87;1.40;;;11.40;99.90;;;;;;7276095;19;20664;-75
2023/12/24 02:20:38;;;;;;;5.40;1.33;;;11.40;99.90;;;;;;7277542;19;20203;-75
2023/12/24 02:23:04;;;;;;;5.20;1.33;;;11.40;99.90;;;;;;7298276;19;20646;-75
2023/12/24 02:25:31;;;;;;;5.97;1.47;;;11.40;99.90;;;;;;7277498;19;20185;-75
2023/12/24 02:28:00;;;;;;;5.97;1.47;;;11.30;99.90;;;;;;7276119;19;20229;-75
2023/12/24 02:30:32;;;;;;;3.47;1.40;;;11.20;99.90;;;;;;7276487;19;20245;-75
2023/12/24 02:33:00;;;;;;;7.43;1.70;;;11.30;99.90;;;;;;7279809;19;20195;-76
2023/12/24 02:35:37;;;;;;;5.93;1.60;;;11.40;99.90;;;;;;7276504;19;20201;-75
2023/12/24 02:38:03;;;;;;;4.93;1.70;;;11.40;99.90;;;;;;7276718;19;20196;-76
2023/12/24 02:40:28;;;;;;;6.67;1.93;;;11.30;99.90;;;;;;7276871;19;20185;-75
2023/12/24 02:42:54;;;;;;;6.23;1.87;;;11.30;99.90;;;;;;7276184;19;20201;-79
2023/12/24 02:45:20;;;;;;;7.20;1.70;;;11.30;99.90;;;;;;7276939;19;20193;-74
2023/12/24 02:47:46;;;;;;;4.37;1.60;;;11.30;99.90;;;;;;7283830;19;20205;-74
2023/12/24 02:50:12;;;;;;;5.07;1.63;;;11.30;99.90;;;;;;7283388;19;20198;-75
2023/12/24 02:52:38;;;;;;;4.80;1.67;;;11.30;99.90;;;;;;7283252;19;21159;-75
2023/12/24 02:55:04;;;;;;;4.90;1.37;;;11.30;99.90;;;;;;7304029;19;20193;-75
2023/12/24 02:57:29;;;;;;;2.90;1.30;;;11.30;99.90;;;;;;7284802;19;20190;-75
2023/12/24 02:59:55;;;;;;;4.70;1.30;;;11.30;99.90;;;;;;7285128;19;20648;-75
2023/12/24 03:02:21;;;;;;;5.23;1.20;;;11.30;99.90;;;;;;7282655;19;20189;-75
2023/12/24 03:04:47;;;;;;;3.33;1.43;;;11.30;99.90;;;;;;7281511;19;20200;-75
2023/12/24 03:07:13;;;;;;;1.93;1.20;;;11.30;99.90;;;;;;7284416;19;20301;-75
2023/12/24 03:09:39;;;;;;;5.43;1.50;;;11.40;99.90;;;;;;7282883;19;20267;-74
2023/12/24 03:12:05;;;;;;;7.20;1.37;;;11.40;99.90;;;;;;7297424;19;20187;-75
2023/12/24 03:14:31;;;;;;;3.87;1.33;;;11.40;99.90;;;;;;7306604;19;20185;-76
2023/12/24 03:16:57;;;;;;;4.63;1.40;;;11.30;99.90;;;;;;7283413;19;20609;-75
2023/12/24 03:19:22;;;;;;;5.43;1.30;;;11.30;99.90;;;;;;7283297;19;20196;-75
2023/12/24 03:21:48;;;;;;;5.03;1.40;;;11.30;99.90;;;;;;7281205;19;20193;-75
2023/12/24 03:24:15;;;;;;;5.00;1.33;;;11.30;99.90;;;;;;7282027;19;20200;-76
2023/12/24 03:26:41;;;;;;;3.77;1.20;;;11.30;99.90;;;;;;7282500;19;20602;-75
2023/12/24 03:29:12;;;;;;;6.47;1.70;;;11.30;99.90;;;;;;7283307;19;20662;-76
2023/12/24 03:31:37;;;;;;;2.30;1.10;;;11.40;99.90;;;;;;7280198;19;20196;-76
2023/12/24 03:34:03;;;;;;;5.13;1.27;;;11.40;99.90;;;;;;7306488;19;20188;-76
2023/12/24 03:36:29;;;;;;;3.30;1.10;;;11.40;99.90;;;;;;7281243;19;20204;-76
2023/12/24 03:38:55;;;;;;;4.97;1.40;;;11.40;99.90;;;;;;7281748;19;20198;-75
2023/12/24 03:41:20;;;;;;;6.70;1.40;;;11.50;99.90;;;;;;7282385;19;20778;-75
2023/12/24 03:43:46;;;;;;;5.03;1.30;;;11.50;99.90;;;;;;7281260;19;20181;-76
2023/12/24 03:46:12;;;;;;;4.57;1.20;;;11.40;99.90;;;;;;7279946;19;20197;-76
2023/12/24 03:48:38;;;;;;;3.80;1.20;;;11.50;99.90;;;;;;7282282;19;20202;-76
2023/12/24 03:51:04;;;;;;;5.37;1.20;;;11.50;99.90;;;;;;7301934;19;20193;-75
2023/12/24 03:53:30;;;;;;;3.13;1.13;;;11.50;99.90;;;;;;7281072;19;20735;-76
2023/12/24 03:55:55;;;;;;;1.80;0.87;;;11.50;99.90;;;;;;7283332;19;20189;-76
2023/12/24 03:58:21;;;;;;;2.83;1.10;;;11.50;99.90;;;;;;7279510;19;20492;-75
2023/12/24 04:00:47;;;;;;;3.63;1.20;;;11.50;99.90;;;;;;7280474;19;20586;-75
2023/12/24 04:03:12;;;;;;;4.17;1.13;;;11.50;99.90;;;;;;7281476;19;20555;-75
2023/12/24 04:05:38;;;;;;;4.83;1.17;;;11.60;99.90;;;;;;7277418;19;20283;-75
2023/12/24 04:08:04;;;;;;;5.10;0.93;;;11.60;99.90;;;;;;7304076;19;20200;-75
2023/12/24 04:10:31;;;;;;;5.73;1.30;;;11.60;99.90;;;;;;7281349;19;20256;-75
2023/12/24 04:13:03;;;;;;;5.27;1.00;;;11.50;99.90;;;;;;7281147;19;20204;-75
2023/12/24 04:15:30;;;;;;;6.67;1.50;;;11.40;99.90;;;;;;7280848;19;20196;-76
2023/12/24 04:17:56;;;;;;;7.13;1.67;;;11.30;99.90;;;;;;7278718;19;20182;-76
2023/12/24 04:20:22;;;;;;;7.90;1.57;;;11.40;99.90;;;;;;7280449;19;20658;-76
2023/12/24 04:22:47;;;;;;;6.60;1.63;;;11.40;99.90;;;;;;7279845;19;20191;-76
2023/12/24 04:25:13;;;;;;;9.63;1.80;;;11.40;99.90;;;;;;7279455;19;20631;-76
2023/12/24 04:27:39;;;;;;;7.20;2.03;;;11.40;99.90;;;;;;7279782;19;20640;-76
2023/12/24 04:30:08;;;;;;;6.43;2.00;;;11.40;99.90;;;;;;7279763;19;20191;-76
2023/12/24 04:32:34;;;;;;;10.93;2.37;;;11.40;99.90;;;;;;7301263;19;20192;-76
2023/12/24 04:35:00;;;;;;;8.73;2.37;;;11.30;99.90;;;;;;7278106;19;20248;-75
2023/12/24 04:37:26;;;;;;;6.87;2.30;;;11.40;99.90;;;;;;7279083;19;20177;-76
2023/12/24 04:39:52;;;;;;;9.40;2.50;;;11.40;99.90;;;;;;7280895;19;20222;-75
2023/12/24 04:42:18;;;;;;;10.50;2.43;;;11.40;99.90;;;;;;7278654;19;20181;-75
2023/12/24 04:44:44;;;;;;;7.20;2.43;;;11.40;99.90;;;;;;7278524;19;20198;-75
2023/12/24 04:47:10;;;;;;;11.40;2.40;;;11.40;99.90;;;;;;7279411;19;20198;-75
2023/12/24 04:49:37;;;;;;;8.47;2.07;;;11.50;99.90;;;;;;7283279;19;20193;-75
2023/12/24 04:52:04;;;;;;;10.77;2.47;;;11.50;99.90;;;;;;7300674;19;20560;-75
2023/12/24 04:54:30;;;;;;;10.43;2.50;;;11.50;99.90;;;;;;7279817;19;20197;-75
2023/12/24 04:56:57;;;;;;;7.10;2.40;;;11.60;99.90;;;;;;7278490;19;20213;-75
2023/12/24 04:59:24;;;;;;;8.07;2.20;;;11.50;99.90;;;;;;7277648;19;20646;-75
2023/12/24 05:01:50;;;;;;;8.07;2.33;;;11.50;99.90;;;;;;7279524;19;20217;-76
2023/12/24 05:04:17;;;;;;;7.80;2.40;;;11.50;99.90;;;;;;7278947;19;20825;-75
2023/12/24 05:06:43;;;;;;;10.33;2.37;;;11.50;99.90;;;;;;7277636;19;20192;-76
2023/12/24 05:09:09;;;;;;;10.37;2.30;;;11.40;99.90;;;;;;7277268;19;20645;-76
2023/12/24 05:11:37;;;;;;;8.97;2.10;;;11.40;99.90;;;;;;7299364;19;20220;-76
2023/12/24 05:14:03;;;;;;;9.80;2.20;;;11.40;99.90;;;;;;7299470;19;20199;-75
2023/12/24 05:16:29;;;;;;;8.70;2.33;;;11.40;99.90;;;;;;7277801;19;20185;-75
2023/12/24 05:18:54;;;;;;;7.57;2.47;;;11.40;99.90;;;;;;7276171;19;21725;-77
2023/12/24 05:21:20;;;;;;;8.00;2.47;;;11.50;99.90;;;;;;7278111;19;20576;-77
2023/12/24 05:23:46;;;;;;;7.43;1.90;;;11.40;99.90;;;;;;7278786;19;20196;-76
2023/12/24 05:26:12;;;;;;;9.80;2.30;;;11.40;99.90;;;;;;7278482;19;20191;-76
2023/12/24 05:28:37;;;;;;;5.80;2.33;;;11.40;99.90;;;;;;7278382;19;20941;-76
2023/12/24 05:31:03;;;;;;;9.00;2.70;;;11.30;99.90;;;;;;7299656;19;20255;-76
2023/12/24 05:33:29;;;;;;;7.33;2.60;;;11.30;99.90;;;;;;7279773;19;20224;-76
2023/12/24 05:35:55;;;;;;;7.00;2.17;;;11.30;99.90;;;;;;7279286;19;20231;-77
2023/12/24 05:38:20;;;;;;;8.23;2.50;;;11.30;99.90;;;;;;7276824;19;20210;-76
2023/12/24 05:40:46;;;;;;;6.37;2.07;;;11.30;99.90;;;;;;7280139;19;20200;-76
2023/12/24 05:43:12;;;;;;;9.13;2.10;;;11.40;99.90;;;;;;7276957;19;20191;-78
2023/12/24 05:45:37;;;;;;;6.57;2.23;;;11.30;99.90;;;;;;7277615;19;20700;-76
2023/12/24 05:48:04;;;;;;;6.67;2.40;;;11.30;99.90;;;;;;7300317;19;20246;-76
2023/12/24 05:50:30;;;;;;;7.13;2.40;;;11.30;99.90;;;;;;7277186;19;20194;-76
2023/12/24 05:52:55;;;;;;;4.87;1.73;;;11.30;99.90;;;;;;7277196;19;20203;-75
2023/12/24 05:55:21;;;;;;;5.07;1.90;;;11.40;99.90;;;;;;7278708;19;20192;-77
2023/12/24 05:57:47;;;;;;;5.87;2.13;;;11.30;99.90;;;;;;7278048;19;20707;-76
2023/12/24 06:00:13;;;;;;;7.27;2.60;;;11.30;99.90;;;;;;7278949;19;20668;-77
2023/12/24 06:02:41;;;;;;;5.37;2.60;;;11.40;99.90;;;;;;7276682;19;20189;-77
2023/12/24 06:05:07;;;;;;;5.63;2.73;;;11.40;99.90;;;;;;7276452;19;20302;-76
2023/12/24 06:07:33;;;;;;;9.70;2.70;;;11.40;99.90;;;;;;7300273;19;20271;-76
2023/12/24 06:09:59;;;;;;;6.70;2.70;;;11.30;99.90;;;;;;7277772;19;20180;-76
2023/12/24 06:12:24;;;;;;;7.67;2.90;;;11.40;99.90;;;;;;7277573;19;20222;-76
2023/12/24 06:14:50;;;;;;;5.33;2.90;;;11.40;99.90;;;;;;7276260;19;20708;-75
2023/12/24 06:17:16;;;;;;;4.53;2.87;;;11.50;99.90;;;;;;7277874;19;20649;-76
2023/12/24 06:19:43;;;;;;;7.10;3.30;;;11.50;99.90;;;;;;7277880;19;20231;-75
2023/12/24 06:22:08;;;;;;;7.17;3.20;;;11.50;99.90;;;;;;7282402;19;20582;-76
2023/12/24 06:24:35;;;;;;;6.63;3.60;;;11.50;99.90;;;;;;7307004;19;20185;-76
2023/12/24 06:27:00;;;;;;;7.97;3.67;;;11.40;99.90;;;;;;7283572;19;20205;-76
2023/12/24 06:29:26;;;;;;;9.83;3.93;;;11.40;99.90;;;;;;7284328;19;20207;-77
2023/12/24 06:31:55;;;;;;;9.00;4.33;;;11.40;99.90;;;;;;7283928;19;20522;-76
2023/12/24 06:34:21;;;;;;;11.67;4.67;;;11.40;99.90;;;;;;7283446;19;20200;-76
2023/12/24 06:36:47;;;;;;;13.03;4.40;;;11.40;99.90;;;;;;7284470;19;20199;-76
2023/12/24 06:39:12;;;;;;;12.10;5.10;;;11.40;99.90;;;;;;7284819;19;20206;-76
2023/12/24 06:41:38;;;;;;;14.03;5.00;;;11.50;99.90;;;;;;7283024;19;20252;-75
2023/12/24 06:44:04;;;;;;;10.63;5.13;;;11.40;99.90;;;;;;7304251;19;20664;-75
2023/12/24 06:46:30;;;;;;;9.23;5.07;;;11.40;99.90;;;;;;7282456;19;20187;-75
2023/12/24 06:48:56;;;;;;;11.17;5.10;;;11.40;99.90;;;;;;7284033;19;20306;-76
2023/12/24 06:51:22;;;;;;;11.57;4.93;;;11.40;99.90;;;;;;7284325;19;20203;-75
2023/12/24 06:53:47;;;;;;;9.90;4.63;;;11.40;99.90;;;;;;7282240;19;20205;-75
2023/12/24 06:56:13;;;;;;;11.37;4.60;;;11.40;99.90;;;;;;7283243;19;20247;-76
2023/12/24 06:58:39;;;;;;;10.10;4.47;;;11.50;99.90;;;;;;7282190;19;20310;-76
2023/12/24 07:01:05;;;;;;;12.17;4.53;;;11.50;99.90;;;;;;7302329;19;20534;-76
2023/12/24 07:03:31;;;;;;;8.63;4.30;;;11.40;99.90;;;;;;7283197;19;20777;-75
2023/12/24 07:05:58;;;;;;;10.70;3.93;;;11.40;99.90;;;;;;7282944;19;20262;-76
2023/12/24 07:08:24;;;;;;;8.63;4.20;;;11.40;99.90;;;;;;7282384;19;20192;-77
2023/12/24 07:10:49;;;;;;;9.30;4.27;;;11.50;99.90;;;;;;7284564;19;20635;-77
2023/12/24 07:13:15;;;;;;;11.70;4.50;;;11.50;99.90;;;;;;7283097;19;20199;-77
2023/12/24 07:15:42;;;;;;;12.27;4.33;;;11.50;99.90;;;;;;7284933;19;20268;-77
2023/12/24 07:18:08;;;;;;;8.57;4.40;;;11.60;99.90;;;;;;7283453;19;20193;-77
2023/12/24 07:20:34;;;;;;;9.73;4.00;;;11.60;99.90;;;;;;7303493;19;20314;-77
2023/12/24 07:23:00;;;;;;;13.13;4.40;;;11.60;99.90;;;;;;7283750;19;20181;-77
2023/12/24 07:25:26;;;;;;;11.63;4.10;;;11.60;99.90;;;;;;7284550;19;20202;-78
2023/12/24 07:27:52;;;;;;;12.07;4.37;;;11.60;99.90;;;;;;7281266;19;20201;-77
2023/12/24 07:30:18;;;;;;;12.33;4.33;;;11.60;99.90;;;;;;7281673;19;20217;-77
2023/12/24 07:32:44;;;;;;;12.90;4.70;;;11.60;99.90;;;;;;7280288;19;20184;-77
2023/12/24 07:35:10;;;;;;;10.20;4.47;;;11.70;99.90;;;;;;7280495;19;20786;-77
2023/12/24 07:37:36;;;;;;;11.43;4.60;;;11.70;99.90;;;;;;7290195;19;20204;-77
2023/12/24 07:40:03;;;;;;;10.37;4.33;;;11.70;99.90;;;;;;7301561;19;20526;-76
2023/12/24 07:42:29;;;;;;;12.13;4.73;;;11.70;99.90;;;;;;7279211;19;20197;-76
2023/12/24 07:44:54;;;;;;;12.60;5.00;;;11.70;99.90;;;;;;7279472;19;20185;-76
2023/12/24 07:47:20;;;;;;;12.83;4.37;;;11.70;99.90;;;;;;7279773;19;20181;-76
2023/12/24 07:49:46;;;;;;;13.87;4.57;;;11.70;99.90;;;;;;7279544;19;20749;-76
2023/12/24 07:52:12;;;;;;;12.13;5.07;;;11.60;99.90;;;;;;7281245;19;20200;-76
2023/12/24 07:54:38;;;;;;;10.00;4.50;;;11.60;99.90;;;;;;7281227;19;20213;-76
2023/12/24 07:57:04;;;;;;;12.43;5.17;;;11.70;99.90;;;;;;7302754;19;20195;-76
2023/12/24 07:59:29;;;;;;;15.23;5.43;;;11.70;99.90;;;;;;7280472;19;20185;-76
2023/12/24 08:01:55;;;;;;;10.13;4.97;;;11.70;99.90;;;;;;7281282;19;20212;-76
2023/12/24 08:04:21;;;;;;;12.03;5.40;;;11.70;99.90;;;;;;7278184;19;20655;-75
2023/12/24 08:06:46;;;;;;;12.53;5.17;;;11.70;99.90;;;;;;7278954;19;20196;-77
2023/12/24 08:09:13;;;;;;;12.47;4.90;;;11.80;99.90;;;;;;7279537;19;20623;-76
2023/12/24 08:11:38;;;;;;;13.57;5.47;;;11.80;99.90;;;;;;7279438;19;20191;-75
2023/12/24 08:14:04;;;;;;;14.10;5.27;;;11.70;99.90;;;;;;7301157;19;20699;-76
2023/12/24 08:16:35;;;;;;;11.30;5.27;;;11.70;99.90;;;;;;7279549;19;20188;-77
2023/12/24 08:19:01;;;;;;;11.13;5.50;;;11.70;99.90;;;;;;7280736;19;20200;-76
2023/12/24 08:21:26;;;;;;;15.30;5.60;;;11.70;99.90;;;;;;7281690;19;20254;-77
2023/12/24 08:23:52;;;;;;;11.67;5.13;;;11.70;99.90;;;;;;7281188;19;20861;-77
2023/12/24 08:26:18;;;;;;;11.17;4.80;;;11.60;99.90;;;;;;7280234;19;20217;-77
2023/12/24 08:28:44;;;;;;;11.83;5.00;;;11.60;99.90;;;;;;7130502;19;2971871;-77
2023/12/24 08:31:10;;;;;;;9.07;4.30;;;11.70;99.90;;;;;;7281578;19;20807;-76
2023/12/24 08:33:37;;;;;;;12.63;4.40;;;11.70;99.90;;;;;;7292616;19;20252;-77
2023/12/24 08:36:04;;;;;;;11.83;5.00;;;11.80;99.90;;;;;;7298992;19;20221;-76
2023/12/24 08:38:30;;;;;;;11.83;4.80;;;11.70;99.90;;;;;;7279498;19;20201;-76
2023/12/24 08:40:56;;;;;;;11.23;4.50;;;11.70;99.90;;;;;;7281258;19;20206;-76
2023/12/24 08:43:21;;;;;;;14.30;4.47;;;11.80;99.90;;;;;;7278021;19;20181;-75
2023/12/24 08:45:47;;;;;;;13.50;4.40;;;11.80;99.90;;;;;;7281205;19;20666;-76
2023/12/24 08:48:13;;;;;;;13.73;4.90;;;11.90;99.90;;;;;;7281806;19;20200;-77
2023/12/24 08:50:39;;;;;;;13.63;4.97;;;11.90;99.90;;;;;;7280854;19;20305;-77
2023/12/24 08:53:04;;;;;;;12.07;4.10;;;12.00;99.90;;;;;;7303772;19;20330;-77
2023/12/24 08:55:30;;;;;;;11.37;4.50;;;12.00;99.90;;;;;;7281422;19;20196;-78
2023/12/24 08:57:58;;;;;;;11.40;4.20;;;12.00;99.90;;;;;;7279077;19;20598;-77
2023/12/24 09:00:24;;;;;;;12.40;4.83;;;12.00;99.90;;;;;;7283301;19;20193;-77
2023/12/24 09:02:50;;;;;;;10.23;4.00;;;12.00;99.90;;;;;;7280927;19;20185;-77
2023/12/24 09:05:18;;;;;;;8.93;3.97;;;11.90;99.90;;;;;;7280798;19;20185;-76
2023/12/24 09:07:44;;;;;;;10.53;4.33;;;11.90;99.90;;;;;;7277686;19;20234;-78
2023/12/24 09:10:10;;;;;;;10.00;4.30;;;12.00;99.90;;;;;;7280447;19;20192;-77
2023/12/24 09:12:36;;;;;;;8.93;3.80;;;11.90;99.90;;;;;;7293823;19;20612;-77
2023/12/24 09:15:02;;;;;;;10.43;4.10;;;12.00;99.90;;;;;;7299097;19;20189;-77
2023/12/24 09:17:28;;;;;;;11.00;4.20;;;12.10;99.90;;;;;;7280832;19;20585;-77
2023/12/24 09:19:53;;;;;;;8.70;3.83;;;12.00;99.90;;;;;;7279116;19;20217;-78
2023/12/24 09:22:19;;;;;;;11.23;4.27;;;12.00;99.90;;;;;;7280422;19;20188;-77
2023/12/24 09:24:45;;;;;;;9.87;4.23;;;12.00;99.90;;;;;;7281377;19;20898;-76
2023/12/24 09:27:11;;;;;;;11.87;4.23;;;12.00;99.90;;;;;;7279439;19;20222;-77
2023/12/24 09:29:36;;;;;;;8.47;3.87;;;12.00;99.90;;;;;;7289367;19;20213;-77
2023/12/24 09:32:02;;;;;;;9.50;3.77;;;12.00;99.90;;;;;;7301322;19;20196;-77
2023/12/24 09:34:28;;;;;;;9.50;3.93;;;11.90;99.90;;;;;;7282059;19;20255;-77
2023/12/24 09:36:54;;;;;;;9.20;4.50;;;11.90;99.90;;;;;;7276935;19;20191;-77
2023/12/24 09:39:19;;;;;;;9.40;4.50;;;11.90;99.90;;;;;;7279503;19;20184;-75
2023/12/24 09:41:45;;;;;;;14.00;4.50;;;11.90;99.90;;;;;;7280039;19;20188;-76
2023/12/24 09:44:11;;;;;;;9.73;3.93;;;11.90;99.90;;;;;;7279700;19;20257;-75
2023/12/24 09:46:36;;;;;;;9.13;4.50;;;11.90;99.90;;;;;;7287050;19;20193;-76
2023/12/24 09:49:02;;;;;;;9.40;4.40;;;11.90;99.90;;;;;;7299879;19;20184;-77
2023/12/24 09:51:29;;;;;;;12.53;4.60;;;11.90;99.90;;;;;;7278799;19;20193;-76
2023/12/24 09:53:55;;;;;;;9.47;4.40;;;11.90;99.90;;;;;;7280391;19;20207;-75
2023/12/24 09:56:21;;;;;;;12.43;4.10;;;11.90;99.90;;;;;;7276788;19;20196;-76
2023/12/24 09:58:47;;;;;;;12.13;3.70;;;11.90;99.90;;;;;;7279617;19;20200;-76
2023/12/24 10:01:13;;;;;;;8.70;4.00;;;11.90;99.90;;;;;;7278406;19;20200;-76
2023/12/24 10:03:39;;;;;;;10.40;4.40;;;11.90;99.90;;;;;;7278156;19;20718;-76
2023/12/24 10:06:07;;;;;;;13.17;4.57;;;12.00;99.90;;;;;;7303078;19;20218;-76
2023/12/24 10:08:36;;;;;;;7.83;3.83;;;12.10;99.90;;;;;;7280740;19;20183;-76
2023/12/24 10:11:21;;;;;;;8.30;4.03;;;12.00;99.90;;;;;;7279900;19;20202;-76
2023/12/24 10:14:00;;;;;;;13.57;4.40;;;12.00;99.90;;;;;;7177253;19;2004618;-76
2023/12/24 10:16:27;;;;;;;9.10;4.00;;;12.00;99.90;;;;;;7279681;19;20208;-76
2023/12/24 10:18:58;;;;;;;10.33;4.33;;;11.90;99.90;;;;;;7279086;19;20192;-76
2023/12/24 10:21:24;;;;;;;8.57;3.93;;;12.00;99.90;;;;;;7278410;19;20703;-76
2023/12/24 10:23:50;;;;;;;10.17;4.53;;;12.10;99.90;;;;;;7277852;19;20290;-76
2023/12/24 10:26:20;;;;;;;9.37;3.97;;;12.10;99.90;;;;;;7278048;19;20191;-76
2023/12/24 10:28:50;;;;;;;11.17;4.10;;;12.10;99.90;;;;;;7277307;19;20207;-76
2023/12/24 10:31:16;;;;;;;9.10;4.10;;;12.10;99.90;;;;;;7276909;19;20208;-77
2023/12/24 10:33:42;;;;;;;11.63;4.00;;;12.10;99.90;;;;;;7276410;19;20198;-76
2023/12/24 10:36:08;;;;;;;8.93;3.97;;;12.10;99.90;;;;;;7276362;19;20832;-76
2023/12/24 10:38:35;;;;;;;7.43;3.70;;;12.10;99.90;;;;;;7296547;19;20277;-76
2023/12/24 10:41:01;;;;;;;8.13;3.60;;;12.10;99.90;;;;;;7278193;19;20295;-76
2023/12/24 10:43:28;;;;;;;9.37;3.63;;;12.10;99.90;;;;;;7276860;19;20728;-75
2023/12/24 10:45:55;;;;;;;8.87;3.60;;;12.00;99.90;;;;;;7277661;19;20193;-76
2023/12/24 10:48:21;;;;;;;8.33;3.63;;;12.00;99.90;;;;;;7277952;19;20185;-75
2023/12/24 10:50:47;;;;;;;9.60;3.63;;;12.00;99.90;;;;;;7275965;19;20200;-75
2023/12/24 10:53:13;;;;;;;5.87;3.87;;;12.10;99.90;;;;;;7274973;19;20561;-76
2023/12/24 10:55:44;;;;;;;8.40;3.20;;;12.00;99.90;;;;;;7277657;19;20197;-75
2023/12/24 10:58:45;;;;;;;6.07;2.97;;;12.00;99.90;;;;;;7276300;19;20197;-76
2023/12/24 11:01:12;;;;;;;9.20;3.67;;;12.00;99.90;;;;;;7172604;19;2004654;-76
2023/12/24 11:03:47;;;;;;;7.47;3.10;;;12.00;99.90;;;;;;7275293;19;20181;-75
2023/12/24 11:06:38;;;;;;;6.33;2.57;;;12.00;99.90;;;;;;7275584;19;20208;-75
2023/12/24 11:09:06;;;;;;;6.63;2.83;;;12.00;99.90;;;;;;7284246;19;20703;-75
2023/12/24 11:11:51;;;;;;;5.87;2.40;;;12.00;99.90;;;;;;7282966;19;20580;-76
2023/12/24 11:14:44;;;;;;;5.50;2.40;;;11.90;99.90;;;;;;7182819;19;2005012;-75
2023/12/24 11:17:33;;;;;;;6.63;2.57;;;11.90;99.90;;;;;;7260628;19;20188;-75
2023/12/24 11:20:26;;;;;;;6.00;2.70;;;12.00;99.90;;;;;;7279351;19;20207;-75
2023/12/24 11:23:03;;;;;;;4.90;2.27;;;12.00;99.90;;;;;;7178678;19;2004766;-75
2023/12/24 11:25:36;;;;;;;5.53;2.43;;;11.90;99.90;;;;;;7281233;19;20204;-76
2023/12/24 11:28:02;;;;;;;4.87;2.47;;;11.80;99.90;;;;;;7284010;19;20260;-75
2023/12/24 11:30:27;;;;;;;7.70;3.10;;;11.90;99.90;;;;;;7281781;19;20272;-75
2023/12/24 11:32:53;;;;;;;6.23;3.00;;;11.90;99.90;;;;;;7280712;19;20185;-75
2023/12/24 11:35:53;;;;;;;6.73;2.80;;;11.90;99.90;;;;;;7278480;19;20531;-75
2023/12/24 11:38:33;;;;;;;5.47;2.83;;;12.00;99.90;;;;;;7173095;19;2005235;-76
2023/12/24 11:41:09;;;;;;;8.83;3.63;;;12.00;99.90;;;;;;7281481;19;20189;-74
2023/12/24 11:43:36;;;;;;;6.17;3.33;;;12.10;99.90;;;;;;7281564;19;20688;-75
2023/12/24 11:46:02;;;;;;;7.63;3.60;;;12.10;99.90;;;;;;7278701;19;20563;-75
2023/12/24 11:48:30;;;;;;;6.40;3.53;;;12.20;99.90;;;;;;7281511;19;20196;-75
2023/12/24 11:51:02;;;;;;;7.97;3.83;;;12.20;99.90;;;;;;7282897;19;20841;-75
2023/12/24 11:53:30;;;;;;;8.33;3.80;;;12.20;99.90;;;;;;7282038;19;20604;-74
2023/12/24 11:56:12;;;;;;;6.00;3.77;;;12.20;99.90;;;;;;7283363;19;20205;-74
2023/12/24 11:58:40;;;;;;;8.43;4.00;;;12.20;99.90;;;;;;7261301;19;20189;-74
2023/12/24 12:01:06;;;;;;;8.43;3.83;;;12.30;99.90;;;;;;7299897;19;20535;-75
2023/12/24 12:03:34;;;;;;;7.87;4.30;;;12.40;99.90;;;;;;7296758;19;20201;-74
2023/12/24 12:06:00;;;;;;;9.93;4.43;;;12.40;99.90;;;;;;7281935;19;20734;-75
2023/12/24 12:08:30;;;;;;;10.13;4.47;;;12.40;99.90;;;;;;7281530;19;21623;-77
2023/12/24 12:10:56;;;;;;;9.07;4.67;;;12.40;99.90;;;;;;7283485;19;20194;-76
2023/12/24 12:13:23;;;;;;;8.80;4.23;;;12.50;99.90;;;;;;7281558;19;20185;-75
2023/12/24 12:15:48;;;;;;;9.13;4.10;;;12.60;99.90;;;;;;7279787;19;21023;-75
2023/12/24 12:18:15;;;;;;;7.93;4.50;;;12.60;99.90;;;;;;7275694;19;20189;-75
2023/12/24 12:20:41;;;;;;;10.80;4.33;;;12.60;99.90;;;;;;7280475;19;20284;-75
2023/12/24 12:23:08;;;;;;;9.80;4.53;;;12.60;99.90;;;;;;7288087;19;20185;-75
2023/12/24 12:25:34;;;;;;;11.83;4.87;;;12.60;99.90;;;;;;7304130;19;20642;-75
2023/12/24 12:27:59;;;;;;;10.00;4.70;;;12.70;99.90;;;;;;7280655;19;20197;-77
2023/12/24 12:30:25;;;;;;;10.77;4.83;;;12.70;99.90;;;;;;7282417;19;20970;-77
2023/12/24 12:32:51;;;;;;;11.73;4.80;;;12.70;99.90;;;;;;7279218;19;20279;-76
2023/12/24 12:35:17;;;;;;;9.07;4.40;;;12.70;99.90;;;;;;7281312;19;20647;-76
2023/12/24 12:37:43;;;;;;;9.10;3.73;;;12.70;99.90;;;;;;7281669;19;20181;-76
2023/12/24 12:40:09;;;;;;;9.83;4.27;;;12.80;99.90;;;;;;7279039;19;20192;-76
2023/12/24 12:42:35;;;;;;;11.93;4.23;;;12.80;99.90;;;;;;7302138;19;20180;-76